sensor_id;sensor_type;location;lat;lon;timestamp;P1;durP1;ratioP1;P2;durP2;ratioP2
52854;SDS011;38719;51.418;7.286;2023-07-02T00:02:21;5.30;;;3.55;;
52854;SDS011;38719;51.418;7.286;2023-07-02T00:04:50;9.80;;;3.90;;
52854;SDS011;38719;51.418;7.286;2023-07-02T00:07:18;6.40;;;3.50;;
52854;SDS011;38719;51.418;7.286;2023-07-02T00:09:45;6.38;;;3.58;;
52854;SDS011;38719;51.418;7.286;2023-07-02T00:12:13;4.30;;;3.42;;
52854;SDS011;38719;51.418;7.286;2023-07-02T00:14:41;9.68;;;3.67;;
52854;SDS011;38719;51.418;7.286;2023-07-02T00:17:08;5.75;;;3.45;;
52854;SDS011;38719;51.418;7.286;2023-07-02T00:19:38;4.78;;;3.30;;
52854;SDS011;38719;51.418;7.286;2023-07-02T00:22:09;7.60;;;3.65;;
52854;SDS011;38719;51.418;7.286;2023-07-02T00:24:36;7.18;;;3.70;;
52854;SDS011;38719;51.418;7.286;2023-07-02T00:27:04;6.50;;;3.85;;
52854;SDS011;38719;51.418;7.286;2023-07-02T00:29:32;4.55;;;3.58;;
52854;SDS011;38719;51.418;7.286;2023-07-02T00:31:59;6.55;;;3.47;;
52854;SDS011;38719;51.418;7.286;2023-07-02T00:34:27;4.95;;;3.67;;
52854;SDS011;38719;51.418;7.286;2023-07-02T00:36:54;6.80;;;3.90;;
52854;SDS011;38719;51.418;7.286;2023-07-02T00:39:23;7.82;;;4.07;;
52854;SDS011;38719;51.418;7.286;2023-07-02T00:41:50;8.38;;;3.45;;
52854;SDS011;38719;51.418;7.286;2023-07-02T00:44:18;10.63;;;4.00;;
52854;SDS011;38719;51.418;7.286;2023-07-02T00:46:49;5.78;;;3.90;;
52854;SDS011;38719;51.418;7.286;2023-07-02T00:49:17;7.00;;;3.60;;
52854;SDS011;38719;51.418;7.286;2023-07-02T00:51:45;7.10;;;4.43;;
52854;SDS011;38719;51.418;7.286;2023-07-02T00:54:13;5.90;;;3.40;;
52854;SDS011;38719;51.418;7.286;2023-07-02T00:56:42;8.32;;;4.32;;
52854;SDS011;38719;51.418;7.286;2023-07-02T00:59:12;8.40;;;3.85;;
52854;SDS011;38719;51.418;7.286;2023-07-02T01:01:39;5.57;;;4.05;;
52854;SDS011;38719;51.418;7.286;2023-07-02T01:04:07;8.00;;;4.28;;
52854;SDS011;38719;51.418;7.286;2023-07-02T01:06:35;9.88;;;4.57;;
52854;SDS011;38719;51.418;7.286;2023-07-02T01:09:06;8.70;;;4.20;;
52854;SDS011;38719;51.418;7.286;2023-07-02T01:11:34;6.72;;;3.72;;
52854;SDS011;38719;51.418;7.286;2023-07-02T01:14:08;11.27;;;4.50;;
52854;SDS011;38719;51.418;7.286;2023-07-02T01:16:38;14.02;;;4.10;;
52854;SDS011;38719;51.418;7.286;2023-07-02T01:19:11;9.52;;;3.58;;
52854;SDS011;38719;51.418;7.286;2023-07-02T01:21:41;6.78;;;4.20;;
52854;SDS011;38719;51.418;7.286;2023-07-02T01:24:09;9.23;;;4.40;;
52854;SDS011;38719;51.418;7.286;2023-07-02T01:26:37;6.28;;;4.20;;
52854;SDS011;38719;51.418;7.286;2023-07-02T01:29:14;6.28;;;4.20;;
52854;SDS011;38719;51.418;7.286;2023-07-02T01:31:42;8.80;;;4.13;;
52854;SDS011;38719;51.418;7.286;2023-07-02T01:34:11;9.48;;;3.80;;
52854;SDS011;38719;51.418;7.286;2023-07-02T01:36:39;10.93;;;4.68;;
52854;SDS011;38719;51.418;7.286;2023-07-02T01:39:08;12.10;;;4.60;;
52854;SDS011;38719;51.418;7.286;2023-07-02T01:41:37;12.20;;;4.28;;
52854;SDS011;38719;51.418;7.286;2023-07-02T01:44:08;7.10;;;4.15;;
52854;SDS011;38719;51.418;7.286;2023-07-02T01:46:36;10.77;;;4.47;;
52854;SDS011;38719;51.418;7.286;2023-07-02T01:49:03;7.25;;;4.03;;
52854;SDS011;38719;51.418;7.286;2023-07-02T01:51:31;9.45;;;4.72;;
52854;SDS011;38719;51.418;7.286;2023-07-02T01:53:59;7.80;;;4.30;;
52854;SDS011;38719;51.418;7.286;2023-07-02T01:56:28;9.20;;;4.68;;
52854;SDS011;38719;51.418;7.286;2023-07-02T01:58:55;8.65;;;5.40;;
52854;SDS011;38719;51.418;7.286;2023-07-02T02:01:23;14.07;;;4.88;;
52854;SDS011;38719;51.418;7.286;2023-07-02T02:03:50;10.43;;;5.18;;
52854;SDS011;38719;51.418;7.286;2023-07-02T02:06:18;10.38;;;4.88;;
52854;SDS011;38719;51.418;7.286;2023-07-02T02:08:45;9.68;;;5.05;;
52854;SDS011;38719;51.418;7.286;2023-07-02T02:11:13;10.82;;;4.90;;
52854;SDS011;38719;51.418;7.286;2023-07-02T02:13:42;10.45;;;4.72;;
52854;SDS011;38719;51.418;7.286;2023-07-02T02:16:09;15.65;;;4.88;;
52854;SDS011;38719;51.418;7.286;2023-07-02T02:18:37;14.38;;;5.45;;
52854;SDS011;38719;51.418;7.286;2023-07-02T02:21:05;12.00;;;5.45;;
52854;SDS011;38719;51.418;7.286;2023-07-02T02:23:32;10.60;;;5.50;;
52854;SDS011;38719;51.418;7.286;2023-07-02T02:26:00;14.80;;;5.57;;
52854;SDS011;38719;51.418;7.286;2023-07-02T02:28:27;11.73;;;5.55;;
52854;SDS011;38719;51.418;7.286;2023-07-02T02:30:56;12.80;;;6.32;;
52854;SDS011;38719;51.418;7.286;2023-07-02T02:33:24;10.70;;;5.68;;
52854;SDS011;38719;51.418;7.286;2023-07-02T02:35:52;12.25;;;5.85;;
52854;SDS011;38719;51.418;7.286;2023-07-02T02:38:19;12.60;;;6.20;;
52854;SDS011;38719;51.418;7.286;2023-07-02T02:40:47;14.63;;;6.90;;
52854;SDS011;38719;51.418;7.286;2023-07-02T02:43:14;11.82;;;5.78;;
52854;SDS011;38719;51.418;7.286;2023-07-02T02:45:43;15.15;;;6.65;;
52854;SDS011;38719;51.418;7.286;2023-07-02T02:48:11;15.77;;;6.55;;
52854;SDS011;38719;51.418;7.286;2023-07-02T02:50:39;15.57;;;6.53;;
52854;SDS011;38719;51.418;7.286;2023-07-02T02:53:09;14.15;;;6.53;;
52854;SDS011;38719;51.418;7.286;2023-07-02T02:55:37;17.45;;;7.43;;
52854;SDS011;38719;51.418;7.286;2023-07-02T02:58:04;16.33;;;8.48;;
52854;SDS011;38719;51.418;7.286;2023-07-02T03:00:32;14.63;;;6.97;;
52854;SDS011;38719;51.418;7.286;2023-07-02T03:03:00;17.13;;;7.88;;
52854;SDS011;38719;51.418;7.286;2023-07-02T03:05:30;18.42;;;7.55;;
52854;SDS011;38719;51.418;7.286;2023-07-02T03:07:58;22.30;;;8.10;;
52854;SDS011;38719;51.418;7.286;2023-07-02T03:10:25;20.35;;;7.78;;
52854;SDS011;38719;51.418;7.286;2023-07-02T03:12:54;19.65;;;7.82;;
52854;SDS011;38719;51.418;7.286;2023-07-02T03:15:22;23.17;;;8.15;;
52854;SDS011;38719;51.418;7.286;2023-07-02T03:17:49;18.70;;;7.93;;
52854;SDS011;38719;51.418;7.286;2023-07-02T03:20:17;21.10;;;7.82;;
52854;SDS011;38719;51.418;7.286;2023-07-02T03:22:46;17.90;;;8.07;;
52854;SDS011;38719;51.418;7.286;2023-07-02T03:25:13;18.90;;;8.18;;
52854;SDS011;38719;51.418;7.286;2023-07-02T03:27:41;24.60;;;8.50;;
52854;SDS011;38719;51.418;7.286;2023-07-02T03:30:09;20.95;;;8.32;;
52854;SDS011;38719;51.418;7.286;2023-07-02T03:32:37;19.33;;;8.40;;
52854;SDS011;38719;51.418;7.286;2023-07-02T03:35:05;24.42;;;9.07;;
52854;SDS011;38719;51.418;7.286;2023-07-02T03:37:32;22.10;;;9.70;;
52854;SDS011;38719;51.418;7.286;2023-07-02T03:40:01;22.38;;;9.20;;
52854;SDS011;38719;51.418;7.286;2023-07-02T03:42:30;20.80;;;9.43;;
52854;SDS011;38719;51.418;7.286;2023-07-02T03:44:59;20.80;;;9.15;;
52854;SDS011;38719;51.418;7.286;2023-07-02T03:47:27;25.75;;;10.10;;
52854;SDS011;38719;51.418;7.286;2023-07-02T03:49:54;23.48;;;10.00;;
52854;SDS011;38719;51.418;7.286;2023-07-02T03:52:22;25.88;;;10.32;;
52854;SDS011;38719;51.418;7.286;2023-07-02T03:54:49;22.33;;;10.05;;
52854;SDS011;38719;51.418;7.286;2023-07-02T03:57:18;29.83;;;10.30;;
52854;SDS011;38719;51.418;7.286;2023-07-02T03:59:46;18.58;;;9.90;;
52854;SDS011;38719;51.418;7.286;2023-07-02T04:02:13;23.45;;;10.35;;
52854;SDS011;38719;51.418;7.286;2023-07-02T04:04:41;21.15;;;10.45;;
52854;SDS011;38719;51.418;7.286;2023-07-02T04:07:09;23.88;;;11.30;;
52854;SDS011;38719;51.418;7.286;2023-07-02T04:09:36;23.15;;;10.98;;
52854;SDS011;38719;51.418;7.286;2023-07-02T04:12:04;22.70;;;11.00;;
52854;SDS011;38719;51.418;7.286;2023-07-02T04:14:33;24.00;;;10.20;;
52854;SDS011;38719;51.418;7.286;2023-07-02T04:17:01;30.30;;;10.35;;
52854;SDS011;38719;51.418;7.286;2023-07-02T04:19:30;26.83;;;11.02;;
52854;SDS011;38719;51.418;7.286;2023-07-02T04:21:58;26.13;;;11.45;;
52854;SDS011;38719;51.418;7.286;2023-07-02T04:24:25;25.05;;;10.82;;
52854;SDS011;38719;51.418;7.286;2023-07-02T04:26:53;22.38;;;10.00;;
52854;SDS011;38719;51.418;7.286;2023-07-02T04:29:42;21.05;;;10.50;;
52854;SDS011;38719;51.418;7.286;2023-07-02T04:32:10;20.80;;;10.18;;
52854;SDS011;38719;51.418;7.286;2023-07-02T04:34:37;28.98;;;11.43;;
52854;SDS011;38719;51.418;7.286;2023-07-02T04:37:05;23.65;;;11.18;;
52854;SDS011;38719;51.418;7.286;2023-07-02T04:39:32;28.10;;;11.80;;
52854;SDS011;38719;51.418;7.286;2023-07-02T04:42:01;26.85;;;10.95;;
52854;SDS011;38719;51.418;7.286;2023-07-02T04:44:28;24.45;;;11.43;;
52854;SDS011;38719;51.418;7.286;2023-07-02T04:46:58;28.00;;;11.35;;
52854;SDS011;38719;51.418;7.286;2023-07-02T04:49:27;28.50;;;11.68;;
52854;SDS011;38719;51.418;7.286;2023-07-02T04:51:55;26.73;;;10.63;;
52854;SDS011;38719;51.418;7.286;2023-07-02T04:54:22;26.08;;;11.38;;
52854;SDS011;38719;51.418;7.286;2023-07-02T04:56:50;31.67;;;11.00;;
52854;SDS011;38719;51.418;7.286;2023-07-02T04:59:19;24.40;;;11.35;;
52854;SDS011;38719;51.418;7.286;2023-07-02T05:01:47;33.90;;;11.68;;
52854;SDS011;38719;51.418;7.286;2023-07-02T05:04:16;31.15;;;12.60;;
52854;SDS011;38719;51.418;7.286;2023-07-02T05:06:44;30.55;;;12.00;;
52854;SDS011;38719;51.418;7.286;2023-07-02T05:09:11;29.90;;;12.43;;
52854;SDS011;38719;51.418;7.286;2023-07-02T05:11:39;24.00;;;11.48;;
52854;SDS011;38719;51.418;7.286;2023-07-02T05:14:06;28.05;;;12.05;;
52854;SDS011;38719;51.418;7.286;2023-07-02T05:16:34;31.08;;;12.25;;
52854;SDS011;38719;51.418;7.286;2023-07-02T05:19:01;30.42;;;11.95;;
52854;SDS011;38719;51.418;7.286;2023-07-02T05:21:30;24.52;;;11.75;;
52854;SDS011;38719;51.418;7.286;2023-07-02T05:23:58;33.88;;;13.40;;
52854;SDS011;38719;51.418;7.286;2023-07-02T05:26:25;27.52;;;13.25;;
52854;SDS011;38719;51.418;7.286;2023-07-02T05:28:53;31.85;;;12.50;;
52854;SDS011;38719;51.418;7.286;2023-07-02T05:31:20;30.58;;;11.93;;
52854;SDS011;38719;51.418;7.286;2023-07-02T05:33:48;30.50;;;12.65;;
52854;SDS011;38719;51.418;7.286;2023-07-02T05:36:15;33.95;;;13.02;;
52854;SDS011;38719;51.418;7.286;2023-07-02T05:38:44;35.08;;;13.15;;
52854;SDS011;38719;51.418;7.286;2023-07-02T05:41:17;32.50;;;12.80;;
52854;SDS011;38719;51.418;7.286;2023-07-02T05:43:45;36.05;;;13.00;;
52854;SDS011;38719;51.418;7.286;2023-07-02T05:46:13;30.33;;;13.52;;
52854;SDS011;38719;51.418;7.286;2023-07-02T05:48:41;28.17;;;12.30;;
52854;SDS011;38719;51.418;7.286;2023-07-02T05:51:09;26.70;;;13.55;;
52854;SDS011;38719;51.418;7.286;2023-07-02T05:53:36;28.02;;;12.73;;
52854;SDS011;38719;51.418;7.286;2023-07-02T05:56:06;29.40;;;13.45;;
52854;SDS011;38719;51.418;7.286;2023-07-02T05:58:33;36.78;;;14.15;;
52854;SDS011;38719;51.418;7.286;2023-07-02T06:01:13;30.55;;;12.35;;
52854;SDS011;38719;51.418;7.286;2023-07-02T06:03:41;31.55;;;12.82;;
52854;SDS011;38719;51.418;7.286;2023-07-02T06:06:11;30.40;;;13.15;;
52854;SDS011;38719;51.418;7.286;2023-07-02T06:08:38;33.55;;;13.70;;
52854;SDS011;38719;51.418;7.286;2023-07-02T06:11:08;32.13;;;13.43;;
52854;SDS011;38719;51.418;7.286;2023-07-02T06:13:36;32.55;;;13.00;;
52854;SDS011;38719;51.418;7.286;2023-07-02T06:16:04;31.85;;;13.23;;
52854;SDS011;38719;51.418;7.286;2023-07-02T06:18:31;28.73;;;12.40;;
52854;SDS011;38719;51.418;7.286;2023-07-02T06:20:59;36.00;;;14.60;;
52854;SDS011;38719;51.418;7.286;2023-07-02T06:23:26;30.83;;;14.43;;
52854;SDS011;38719;51.418;7.286;2023-07-02T06:25:54;29.17;;;13.95;;
52854;SDS011;38719;51.418;7.286;2023-07-02T06:28:26;35.65;;;13.90;;
52854;SDS011;38719;51.418;7.286;2023-07-02T06:30:54;33.03;;;12.85;;
52854;SDS011;38719;51.418;7.286;2023-07-02T06:33:21;38.35;;;14.50;;
52854;SDS011;38719;51.418;7.286;2023-07-02T06:35:49;33.92;;;13.70;;
52854;SDS011;38719;51.418;7.286;2023-07-02T06:38:17;32.50;;;13.80;;
52854;SDS011;38719;51.418;7.286;2023-07-02T06:40:44;32.40;;;13.15;;
52854;SDS011;38719;51.418;7.286;2023-07-02T06:43:12;28.05;;;12.98;;
52854;SDS011;38719;51.418;7.286;2023-07-02T06:45:41;31.40;;;12.88;;
52854;SDS011;38719;51.418;7.286;2023-07-02T06:48:09;23.52;;;12.82;;
52854;SDS011;38719;51.418;7.286;2023-07-02T06:50:36;30.02;;;12.52;;
52854;SDS011;38719;51.418;7.286;2023-07-02T06:53:04;33.55;;;12.90;;
52854;SDS011;38719;51.418;7.286;2023-07-02T06:55:31;25.77;;;11.80;;
52854;SDS011;38719;51.418;7.286;2023-07-02T06:57:59;34.30;;;11.88;;
52854;SDS011;38719;51.418;7.286;2023-07-02T07:00:26;28.42;;;11.75;;
52854;SDS011;38719;51.418;7.286;2023-07-02T07:02:56;28.65;;;11.20;;
52854;SDS011;38719;51.418;7.286;2023-07-02T07:05:23;26.92;;;11.43;;
52854;SDS011;38719;51.418;7.286;2023-07-02T07:07:51;27.90;;;11.20;;
52854;SDS011;38719;51.418;7.286;2023-07-02T07:10:19;27.20;;;11.77;;
52854;SDS011;38719;51.418;7.286;2023-07-02T07:12:46;25.75;;;10.95;;
52854;SDS011;38719;51.418;7.286;2023-07-02T07:15:14;26.90;;;10.82;;
52854;SDS011;38719;51.418;7.286;2023-07-02T07:17:41;26.23;;;11.73;;
52854;SDS011;38719;51.418;7.286;2023-07-02T07:20:11;24.50;;;10.93;;
52854;SDS011;38719;51.418;7.286;2023-07-02T07:22:39;32.13;;;11.27;;
52854;SDS011;38719;51.418;7.286;2023-07-02T07:25:07;23.88;;;10.30;;
52854;SDS011;38719;51.418;7.286;2023-07-02T07:27:35;28.45;;;11.57;;
52854;SDS011;38719;51.418;7.286;2023-07-02T07:30:03;27.63;;;11.07;;
52854;SDS011;38719;51.418;7.286;2023-07-02T07:32:32;31.83;;;11.20;;
52854;SDS011;38719;51.418;7.286;2023-07-02T07:34:59;25.60;;;10.85;;
52854;SDS011;38719;51.418;7.286;2023-07-02T07:37:28;23.58;;;11.02;;
52854;SDS011;38719;51.418;7.286;2023-07-02T07:39:56;28.38;;;10.98;;
52854;SDS011;38719;51.418;7.286;2023-07-02T07:42:23;25.50;;;10.70;;
52854;SDS011;38719;51.418;7.286;2023-07-02T07:44:51;29.52;;;11.45;;
52854;SDS011;38719;51.418;7.286;2023-07-02T07:47:18;29.27;;;10.52;;
52854;SDS011;38719;51.418;7.286;2023-07-02T07:49:46;28.02;;;10.52;;
52854;SDS011;38719;51.418;7.286;2023-07-02T07:52:14;24.83;;;10.70;;
52854;SDS011;38719;51.418;7.286;2023-07-02T07:54:43;24.20;;;11.10;;
52854;SDS011;38719;51.418;7.286;2023-07-02T07:57:10;24.52;;;10.15;;
52854;SDS011;38719;51.418;7.286;2023-07-02T07:59:38;25.00;;;10.07;;
52854;SDS011;38719;51.418;7.286;2023-07-02T08:02:05;22.92;;;9.77;;
52854;SDS011;38719;51.418;7.286;2023-07-02T08:04:33;22.17;;;9.68;;
52854;SDS011;38719;51.418;7.286;2023-07-02T08:07:01;28.92;;;10.00;;
52854;SDS011;38719;51.418;7.286;2023-07-02T08:09:30;29.05;;;10.57;;
52854;SDS011;38719;51.418;7.286;2023-07-02T08:11:59;27.25;;;10.15;;
52854;SDS011;38719;51.418;7.286;2023-07-02T08:14:26;28.17;;;10.00;;
52854;SDS011;38719;51.418;7.286;2023-07-02T08:16:54;27.00;;;9.63;;
52854;SDS011;38719;51.418;7.286;2023-07-02T08:19:21;24.58;;;9.40;;
52854;SDS011;38719;51.418;7.286;2023-07-02T08:21:52;23.63;;;9.60;;
52854;SDS011;38719;51.418;7.286;2023-07-02T08:24:19;28.45;;;9.27;;
52854;SDS011;38719;51.418;7.286;2023-07-02T08:26:47;26.20;;;10.48;;
52854;SDS011;38719;51.418;7.286;2023-07-02T08:29:17;22.23;;;9.77;;
52854;SDS011;38719;51.418;7.286;2023-07-02T08:31:44;18.48;;;9.40;;
52854;SDS011;38719;51.418;7.286;2023-07-02T08:34:12;29.35;;;10.65;;
52854;SDS011;38719;51.418;7.286;2023-07-02T08:36:39;23.98;;;10.48;;
52854;SDS011;38719;51.418;7.286;2023-07-02T08:39:09;21.10;;;10.00;;
52854;SDS011;38719;51.418;7.286;2023-07-02T08:41:44;45.88;;;11.77;;
52854;SDS011;38719;51.418;7.286;2023-07-02T08:44:12;26.67;;;10.03;;
52854;SDS011;38719;51.418;7.286;2023-07-02T08:46:42;22.70;;;10.13;;
52854;SDS011;38719;51.418;7.286;2023-07-02T08:49:10;22.95;;;9.93;;
52854;SDS011;38719;51.418;7.286;2023-07-02T08:51:38;23.40;;;9.80;;
52854;SDS011;38719;51.418;7.286;2023-07-02T08:54:05;26.08;;;9.43;;
52854;SDS011;38719;51.418;7.286;2023-07-02T08:56:33;21.17;;;9.05;;
52854;SDS011;38719;51.418;7.286;2023-07-02T08:59:00;20.70;;;8.35;;
52854;SDS011;38719;51.418;7.286;2023-07-02T09:01:28;21.95;;;8.32;;
52854;SDS011;38719;51.418;7.286;2023-07-02T09:03:59;25.15;;;8.48;;
52854;SDS011;38719;51.418;7.286;2023-07-02T09:06:27;33.28;;;9.02;;
52854;SDS011;38719;51.418;7.286;2023-07-02T09:09:03;18.13;;;7.72;;
52854;SDS011;38719;51.418;7.286;2023-07-02T09:11:31;25.58;;;8.30;;
52854;SDS011;38719;51.418;7.286;2023-07-02T09:13:58;17.05;;;7.50;;
52854;SDS011;38719;51.418;7.286;2023-07-02T09:16:27;15.93;;;7.93;;
52854;SDS011;38719;51.418;7.286;2023-07-02T09:19:00;25.05;;;7.80;;
52854;SDS011;38719;51.418;7.286;2023-07-02T09:21:37;52.35;;;9.82;;
52854;SDS011;38719;51.418;7.286;2023-07-02T09:24:13;19.08;;;8.00;;
52854;SDS011;38719;51.418;7.286;2023-07-02T09:26:42;23.38;;;7.88;;
52854;SDS011;38719;51.418;7.286;2023-07-02T09:29:11;16.70;;;7.95;;
52854;SDS011;38719;51.418;7.286;2023-07-02T09:31:45;19.00;;;7.13;;
52854;SDS011;38719;51.418;7.286;2023-07-02T09:34:34;18.77;;;7.35;;
52854;SDS011;38719;51.418;7.286;2023-07-02T09:37:03;19.73;;;7.60;;
52854;SDS011;38719;51.418;7.286;2023-07-02T09:39:32;26.50;;;7.70;;
52854;SDS011;38719;51.418;7.286;2023-07-02T09:42:01;18.17;;;7.32;;
52854;SDS011;38719;51.418;7.286;2023-07-02T09:44:33;20.63;;;7.53;;
52854;SDS011;38719;51.418;7.286;2023-07-02T09:47:02;18.83;;;7.43;;
52854;SDS011;38719;51.418;7.286;2023-07-02T09:49:31;19.80;;;8.50;;
52854;SDS011;38719;51.418;7.286;2023-07-02T09:52:02;18.45;;;8.70;;
52854;SDS011;38719;51.418;7.286;2023-07-02T09:54:31;22.40;;;8.23;;
52854;SDS011;38719;51.418;7.286;2023-07-02T09:56:59;20.95;;;8.25;;
52854;SDS011;38719;51.418;7.286;2023-07-02T09:59:27;20.98;;;7.50;;
52854;SDS011;38719;51.418;7.286;2023-07-02T10:01:55;19.98;;;8.60;;
52854;SDS011;38719;51.418;7.286;2023-07-02T10:04:24;17.38;;;8.50;;
52854;SDS011;38719;51.418;7.286;2023-07-02T10:06:52;18.92;;;8.13;;
52854;SDS011;38719;51.418;7.286;2023-07-02T10:09:34;32.05;;;8.63;;
52854;SDS011;38719;51.418;7.286;2023-07-02T10:12:14;29.73;;;8.88;;
52854;SDS011;38719;51.418;7.286;2023-07-02T10:14:43;19.63;;;8.20;;
52854;SDS011;38719;51.418;7.286;2023-07-02T10:17:22;19.65;;;7.75;;
52854;SDS011;38719;51.418;7.286;2023-07-02T10:19:51;21.48;;;8.70;;
52854;SDS011;38719;51.418;7.286;2023-07-02T10:22:19;20.08;;;8.82;;
52854;SDS011;38719;51.418;7.286;2023-07-02T10:24:51;20.70;;;7.78;;
52854;SDS011;38719;51.418;7.286;2023-07-02T10:27:20;20.15;;;8.40;;
52854;SDS011;38719;51.418;7.286;2023-07-02T10:29:51;19.90;;;8.35;;
52854;SDS011;38719;51.418;7.286;2023-07-02T10:32:25;21.20;;;8.20;;
52854;SDS011;38719;51.418;7.286;2023-07-02T10:34:55;21.55;;;8.23;;
52854;SDS011;38719;51.418;7.286;2023-07-02T10:37:24;21.33;;;9.20;;
52854;SDS011;38719;51.418;7.286;2023-07-02T10:39:53;15.13;;;8.05;;
52854;SDS011;38719;51.418;7.286;2023-07-02T10:42:21;18.63;;;8.18;;
52854;SDS011;38719;51.418;7.286;2023-07-02T10:44:49;15.45;;;7.95;;
52854;SDS011;38719;51.418;7.286;2023-07-02T10:47:18;20.70;;;8.30;;
52854;SDS011;38719;51.418;7.286;2023-07-02T10:49:46;19.10;;;7.72;;
52854;SDS011;38719;51.418;7.286;2023-07-02T10:52:13;21.02;;;8.23;;
52854;SDS011;38719;51.418;7.286;2023-07-02T10:54:41;20.77;;;8.15;;
52854;SDS011;38719;51.418;7.286;2023-07-02T10:57:12;20.63;;;8.85;;
52854;SDS011;38719;51.418;7.286;2023-07-02T10:59:42;19.65;;;8.35;;
52854;SDS011;38719;51.418;7.286;2023-07-02T11:02:09;23.85;;;8.95;;
52854;SDS011;38719;51.418;7.286;2023-07-02T11:04:37;23.17;;;8.50;;
52854;SDS011;38719;51.418;7.286;2023-07-02T11:07:05;17.35;;;8.43;;
52854;SDS011;38719;51.418;7.286;2023-07-02T11:09:32;16.38;;;7.57;;
52854;SDS011;38719;51.418;7.286;2023-07-02T11:12:00;19.35;;;8.40;;
52854;SDS011;38719;51.418;7.286;2023-07-02T11:14:32;17.77;;;8.13;;
52854;SDS011;38719;51.418;7.286;2023-07-02T11:17:02;16.15;;;7.55;;
52854;SDS011;38719;51.418;7.286;2023-07-02T11:19:31;29.67;;;8.20;;
52854;SDS011;38719;51.418;7.286;2023-07-02T11:21:59;22.70;;;7.13;;
52854;SDS011;38719;51.418;7.286;2023-07-02T12:16:07;17.17;;;6.82;;
52854;SDS011;38719;51.418;7.286;2023-07-02T12:18:35;18.98;;;6.88;;
52854;SDS011;38719;51.418;7.286;2023-07-02T12:21:02;29.75;;;7.57;;
52854;SDS011;38719;51.418;7.286;2023-07-02T12:23:30;15.80;;;6.93;;
52854;SDS011;38719;51.418;7.286;2023-07-02T12:25:57;15.30;;;6.65;;
52854;SDS011;38719;51.418;7.286;2023-07-02T12:28:25;16.85;;;7.03;;
52854;SDS011;38719;51.418;7.286;2023-07-02T12:30:52;13.75;;;6.30;;
52854;SDS011;38719;51.418;7.286;2023-07-02T12:33:21;15.18;;;6.05;;
52854;SDS011;38719;51.418;7.286;2023-07-02T12:35:49;12.50;;;5.72;;
52854;SDS011;38719;51.418;7.286;2023-07-02T12:38:17;19.13;;;6.32;;
52854;SDS011;38719;51.418;7.286;2023-07-02T12:40:44;15.98;;;6.00;;
52854;SDS011;38719;51.418;7.286;2023-07-02T12:43:12;29.52;;;6.35;;
52854;SDS011;38719;51.418;7.286;2023-07-02T12:45:40;15.55;;;5.95;;
52854;SDS011;38719;51.418;7.286;2023-07-02T12:48:07;14.70;;;6.13;;
52854;SDS011;38719;51.418;7.286;2023-07-02T12:50:37;14.30;;;5.93;;
52854;SDS011;38719;51.418;7.286;2023-07-02T12:53:05;13.60;;;5.25;;
52854;SDS011;38719;51.418;7.286;2023-07-02T12:55:33;17.38;;;5.78;;
52854;SDS011;38719;51.418;7.286;2023-07-02T12:58:00;15.60;;;6.18;;
52854;SDS011;38719;51.418;7.286;2023-07-02T13:00:28;15.00;;;6.07;;
52854;SDS011;38719;51.418;7.286;2023-07-02T13:02:56;11.05;;;5.65;;
52854;SDS011;38719;51.418;7.286;2023-07-02T13:05:31;12.88;;;5.82;;
52854;SDS011;38719;51.418;7.286;2023-07-02T13:08:00;15.35;;;6.18;;
52854;SDS011;38719;51.418;7.286;2023-07-02T13:10:28;12.10;;;7.13;;
52854;SDS011;38719;51.418;7.286;2023-07-02T13:12:56;14.95;;;6.40;;
52854;SDS011;38719;51.418;7.286;2023-07-02T13:15:35;12.65;;;5.90;;
52854;SDS011;38719;51.418;7.286;2023-07-02T13:18:02;15.57;;;6.10;;
52854;SDS011;38719;51.418;7.286;2023-07-02T13:20:30;12.63;;;6.43;;
52854;SDS011;38719;51.418;7.286;2023-07-02T13:22:59;15.48;;;6.43;;
52854;SDS011;38719;51.418;7.286;2023-07-02T13:25:26;17.88;;;6.22;;
52854;SDS011;38719;51.418;7.286;2023-07-02T13:27:54;19.40;;;6.47;;
52854;SDS011;38719;51.418;7.286;2023-07-02T13:30:22;18.40;;;6.72;;
52854;SDS011;38719;51.418;7.286;2023-07-02T13:32:50;15.82;;;6.50;;
52854;SDS011;38719;51.418;7.286;2023-07-02T13:35:18;14.68;;;6.22;;
52854;SDS011;38719;51.418;7.286;2023-07-02T13:37:46;13.93;;;6.22;;
52854;SDS011;38719;51.418;7.286;2023-07-02T13:40:15;13.45;;;7.03;;
52854;SDS011;38719;51.418;7.286;2023-07-02T13:42:43;14.45;;;7.93;;
52854;SDS011;38719;51.418;7.286;2023-07-02T13:45:10;14.07;;;6.55;;
52854;SDS011;38719;51.418;7.286;2023-07-02T13:47:38;13.38;;;7.35;;
52854;SDS011;38719;51.418;7.286;2023-07-02T13:50:06;16.42;;;6.88;;
52854;SDS011;38719;51.418;7.286;2023-07-02T13:52:34;16.42;;;7.45;;
52854;SDS011;38719;51.418;7.286;2023-07-02T13:55:01;12.90;;;6.78;;
52854;SDS011;38719;51.418;7.286;2023-07-02T13:57:30;16.00;;;7.20;;
52854;SDS011;38719;51.418;7.286;2023-07-02T13:59:59;16.13;;;6.82;;
52854;SDS011;38719;51.418;7.286;2023-07-02T14:02:27;13.55;;;6.88;;
52854;SDS011;38719;51.418;7.286;2023-07-02T14:04:56;21.52;;;7.93;;
52854;SDS011;38719;51.418;7.286;2023-07-02T14:07:26;15.85;;;7.00;;
52854;SDS011;38719;51.418;7.286;2023-07-02T14:09:53;18.65;;;7.55;;
52854;SDS011;38719;51.418;7.286;2023-07-02T14:12:22;21.75;;;7.13;;
52854;SDS011;38719;51.418;7.286;2023-07-02T14:14:49;17.30;;;7.13;;
52854;SDS011;38719;51.418;7.286;2023-07-02T14:17:18;27.33;;;7.90;;
52854;SDS011;38719;51.418;7.286;2023-07-02T14:19:46;20.27;;;6.90;;
52854;SDS011;38719;51.418;7.286;2023-07-02T14:22:13;19.15;;;7.22;;
52854;SDS011;38719;51.418;7.286;2023-07-02T14:24:41;18.02;;;7.50;;
52854;SDS011;38719;51.418;7.286;2023-07-02T14:27:09;18.05;;;7.10;;
52854;SDS011;38719;51.418;7.286;2023-07-02T14:29:36;18.05;;;7.10;;
52854;SDS011;38719;51.418;7.286;2023-07-02T14:32:04;15.95;;;6.88;;
52854;SDS011;38719;51.418;7.286;2023-07-02T14:34:35;15.40;;;6.70;;
52854;SDS011;38719;51.418;7.286;2023-07-02T14:37:02;17.25;;;7.75;;
52854;SDS011;38719;51.418;7.286;2023-07-02T14:39:30;15.77;;;7.13;;
52854;SDS011;38719;51.418;7.286;2023-07-02T14:41:58;16.88;;;6.82;;
52854;SDS011;38719;51.418;7.286;2023-07-02T14:44:26;19.83;;;7.25;;
52854;SDS011;38719;51.418;7.286;2023-07-02T14:46:53;31.45;;;7.78;;
52854;SDS011;38719;51.418;7.286;2023-07-02T14:49:21;16.52;;;8.00;;
52854;SDS011;38719;51.418;7.286;2023-07-02T14:51:50;17.42;;;7.40;;
52854;SDS011;38719;51.418;7.286;2023-07-02T14:54:17;18.85;;;7.43;;
52854;SDS011;38719;51.418;7.286;2023-07-02T14:56:45;22.05;;;7.93;;
52854;SDS011;38719;51.418;7.286;2023-07-02T14:59:12;23.25;;;7.68;;
52854;SDS011;38719;51.418;7.286;2023-07-02T15:01:40;14.00;;;7.03;;
52854;SDS011;38719;51.418;7.286;2023-07-02T15:04:07;19.35;;;7.45;;
52854;SDS011;38719;51.418;7.286;2023-07-02T15:06:35;17.15;;;7.43;;
52854;SDS011;38719;51.418;7.286;2023-07-02T15:09:04;22.83;;;7.88;;
52854;SDS011;38719;51.418;7.286;2023-07-02T15:11:32;17.73;;;7.47;;
52854;SDS011;38719;51.418;7.286;2023-07-02T15:14:00;16.80;;;7.00;;
52854;SDS011;38719;51.418;7.286;2023-07-02T15:16:27;16.67;;;7.75;;
52854;SDS011;38719;51.418;7.286;2023-07-02T15:18:55;16.58;;;7.55;;
52854;SDS011;38719;51.418;7.286;2023-07-02T15:21:22;21.20;;;7.90;;
52854;SDS011;38719;51.418;7.286;2023-07-02T15:23:50;17.40;;;7.28;;
52854;SDS011;38719;51.418;7.286;2023-07-02T15:26:19;22.42;;;7.65;;
52854;SDS011;38719;51.418;7.286;2023-07-02T15:28:47;21.00;;;8.32;;
52854;SDS011;38719;51.418;7.286;2023-07-02T15:31:15;17.58;;;7.80;;